sensor_id;sensor_type;location;lat;lon;timestamp;P1;durP1;ratioP1;P2;durP2;ratioP2
17171;SDS011;8701;50.150;8.756;2022-08-01T00:01:08;1.63;;;1.50;;
17171;SDS011;8701;50.150;8.756;2022-08-01T00:05:10;3.20;;;1.77;;
17171;SDS011;8701;50.150;8.756;2022-08-01T00:09:14;3.43;;;1.70;;
17171;SDS011;8701;50.150;8.756;2022-08-01T00:13:16;2.03;;;1.63;;
17171;SDS011;8701;50.150;8.756;2022-08-01T00:17:19;1.40;;;1.30;;
17171;SDS011;8701;50.150;8.756;2022-08-01T00:21:21;2.60;;;1.50;;
17171;SDS011;8701;50.150;8.756;2022-08-01T00:25:25;1.47;;;1.37;;
17171;SDS011;8701;50.150;8.756;2022-08-01T00:29:27;3.27;;;1.40;;
17171;SDS011;8701;50.150;8.756;2022-08-01T00:33:30;3.27;;;1.40;;
17171;SDS011;8701;50.150;8.756;2022-08-01T00:37:32;2.40;;;1.30;;
17171;SDS011;8701;50.150;8.756;2022-08-01T00:41:36;1.97;;;1.50;;
17171;SDS011;8701;50.150;8.756;2022-08-01T00:45:38;2.03;;;1.37;;
17171;SDS011;8701;50.150;8.756;2022-08-01T00:49:40;1.70;;;1.60;;
17171;SDS011;8701;50.150;8.756;2022-08-01T00:53:43;2.90;;;1.80;;
17171;SDS011;8701;50.150;8.756;2022-08-01T00:57:47;4.07;;;1.70;;
17171;SDS011;8701;50.150;8.756;2022-08-01T01:01:50;2.43;;;1.60;;
17171;SDS011;8701;50.150;8.756;2022-08-01T01:05:56;1.73;;;1.50;;
17171;SDS011;8701;50.150;8.756;2022-08-01T01:10:09;2.40;;;1.50;;
17171;SDS011;8701;50.150;8.756;2022-08-01T01:14:21;2.30;;;1.47;;
17171;SDS011;8701;50.150;8.756;2022-08-01T01:18:32;2.10;;;1.53;;
17171;SDS011;8701;50.150;8.756;2022-08-01T01:22:47;2.17;;;1.60;;
17171;SDS011;8701;50.150;8.756;2022-08-01T01:27:01;2.97;;;1.70;;
17171;SDS011;8701;50.150;8.756;2022-08-01T01:31:13;1.53;;;1.43;;
17171;SDS011;8701;50.150;8.756;2022-08-01T01:35:20;1.70;;;1.60;;
17171;SDS011;8701;50.150;8.756;2022-08-01T01:39:25;4.03;;;1.53;;
17171;SDS011;8701;50.150;8.756;2022-08-01T01:43:29;1.40;;;1.30;;
17171;SDS011;8701;50.150;8.756;2022-08-01T01:47:35;1.90;;;1.80;;
17171;SDS011;8701;50.150;8.756;2022-08-01T01:51:39;2.60;;;1.90;;
17171;SDS011;8701;50.150;8.756;2022-08-01T01:55:44;2.13;;;1.80;;
17171;SDS011;8701;50.150;8.756;2022-08-01T01:59:49;1.70;;;1.50;;
17171;SDS011;8701;50.150;8.756;2022-08-01T02:03:55;2.27;;;1.40;;
17171;SDS011;8701;50.150;8.756;2022-08-01T02:07:58;2.10;;;1.50;;
17171;SDS011;8701;50.150;8.756;2022-08-01T02:12:00;1.90;;;1.57;;
17171;SDS011;8701;50.150;8.756;2022-08-01T02:16:05;2.20;;;1.53;;
17171;SDS011;8701;50.150;8.756;2022-08-01T02:20:13;1.93;;;1.30;;
17171;SDS011;8701;50.150;8.756;2022-08-01T02:24:17;1.83;;;1.53;;
17171;SDS011;8701;50.150;8.756;2022-08-01T02:28:28;5.70;;;1.70;;
17171;SDS011;8701;50.150;8.756;2022-08-01T02:32:34;5.60;;;1.50;;
17171;SDS011;8701;50.150;8.756;2022-08-01T02:36:41;3.07;;;1.60;;
17171;SDS011;8701;50.150;8.756;2022-08-01T02:40:47;2.17;;;1.53;;
17171;SDS011;8701;50.150;8.756;2022-08-01T02:44:52;2.80;;;1.70;;
17171;SDS011;8701;50.150;8.756;2022-08-01T02:48:56;1.67;;;1.58;;
17171;SDS011;8701;50.150;8.756;2022-08-01T02:53:02;1.87;;;1.77;;
17171;SDS011;8701;50.150;8.756;2022-08-01T02:57:08;1.93;;;1.70;;
17171;SDS011;8701;50.150;8.756;2022-08-01T03:01:11;3.60;;;1.53;;
17171;SDS011;8701;50.150;8.756;2022-08-01T03:05:19;1.73;;;1.60;;
17171;SDS011;8701;50.150;8.756;2022-08-01T03:09:23;4.20;;;2.00;;
17171;SDS011;8701;50.150;8.756;2022-08-01T03:13:28;2.40;;;1.70;;
17171;SDS011;8701;50.150;8.756;2022-08-01T03:17:32;2.20;;;1.77;;
17171;SDS011;8701;50.150;8.756;2022-08-01T03:21:36;2.57;;;2.20;;
17171;SDS011;8701;50.150;8.756;2022-08-01T03:25:41;3.63;;;1.80;;
17171;SDS011;8701;50.150;8.756;2022-08-01T03:29:46;2.83;;;1.57;;
17171;SDS011;8701;50.150;8.756;2022-08-01T03:33:50;5.07;;;2.00;;
17171;SDS011;8701;50.150;8.756;2022-08-01T03:37:52;1.93;;;1.50;;
17171;SDS011;8701;50.150;8.756;2022-08-01T03:41:59;1.93;;;1.70;;
17171;SDS011;8701;50.150;8.756;2022-08-01T03:46:07;3.43;;;1.97;;
17171;SDS011;8701;50.150;8.756;2022-08-01T03:50:13;1.90;;;1.70;;
17171;SDS011;8701;50.150;8.756;2022-08-01T03:54:17;3.60;;;1.90;;
17171;SDS011;8701;50.150;8.756;2022-08-01T03:58:26;2.17;;;1.70;;
17171;SDS011;8701;50.150;8.756;2022-08-01T04:02:29;2.40;;;1.43;;
17171;SDS011;8701;50.150;8.756;2022-08-01T04:06:32;2.80;;;1.70;;
17171;SDS011;8701;50.150;8.756;2022-08-01T04:10:34;2.30;;;2.10;;
17171;SDS011;8701;50.150;8.756;2022-08-01T04:14:38;2.70;;;2.10;;
17171;SDS011;8701;50.150;8.756;2022-08-01T04:18:40;2.30;;;2.10;;
17171;SDS011;8701;50.150;8.756;2022-08-01T04:22:42;3.63;;;1.83;;
17171;SDS011;8701;50.150;8.756;2022-08-01T04:26:45;2.50;;;1.60;;
17171;SDS011;8701;50.150;8.756;2022-08-01T04:30:52;4.27;;;1.40;;
17171;SDS011;8701;50.150;8.756;2022-08-01T04:34:57;2.90;;;1.43;;
17171;SDS011;8701;50.150;8.756;2022-08-01T04:39:01;1.77;;;1.67;;
17171;SDS011;8701;50.150;8.756;2022-08-01T04:43:05;4.17;;;1.80;;
17171;SDS011;8701;50.150;8.756;2022-08-01T04:47:09;3.20;;;1.70;;
17171;SDS011;8701;50.150;8.756;2022-08-01T04:51:13;4.47;;;1.80;;
17171;SDS011;8701;50.150;8.756;2022-08-01T04:55:16;1.70;;;1.60;;
17171;SDS011;8701;50.150;8.756;2022-08-01T04:59:19;4.63;;;1.53;;
17171;SDS011;8701;50.150;8.756;2022-08-01T05:03:40;3.00;;;1.67;;
17171;SDS011;8701;50.150;8.756;2022-08-01T05:07:42;2.75;;;1.50;;
17171;SDS011;8701;50.150;8.756;2022-08-01T05:11:45;1.50;;;1.40;;
17171;SDS011;8701;50.150;8.756;2022-08-01T05:15:47;3.57;;;1.77;;
17171;SDS011;8701;50.150;8.756;2022-08-01T05:19:51;4.27;;;1.63;;
17171;SDS011;8701;50.150;8.756;2022-08-01T05:23:53;3.77;;;1.43;;
17171;SDS011;8701;50.150;8.756;2022-08-01T05:27:55;2.50;;;1.53;;
17171;SDS011;8701;50.150;8.756;2022-08-01T05:31:58;2.50;;;1.67;;
17171;SDS011;8701;50.150;8.756;2022-08-01T05:36:02;2.70;;;1.63;;
17171;SDS011;8701;50.150;8.756;2022-08-01T05:40:05;1.53;;;1.40;;
17171;SDS011;8701;50.150;8.756;2022-08-01T05:44:08;4.60;;;1.60;;
17171;SDS011;8701;50.150;8.756;2022-08-01T05:48:12;2.43;;;2.10;;
17171;SDS011;8701;50.150;8.756;2022-08-01T05:52:16;3.38;;;1.83;;
17171;SDS011;8701;50.150;8.756;2022-08-01T05:56:19;4.43;;;2.10;;
17171;SDS011;8701;50.150;8.756;2022-08-01T06:00:22;3.70;;;1.70;;
17171;SDS011;8701;50.150;8.756;2022-08-01T06:04:24;3.77;;;2.20;;
17171;SDS011;8701;50.150;8.756;2022-08-01T06:08:28;2.37;;;1.80;;
17171;SDS011;8701;50.150;8.756;2022-08-01T06:12:32;4.17;;;1.87;;
17171;SDS011;8701;50.150;8.756;2022-08-01T06:16:34;4.20;;;2.20;;
17171;SDS011;8701;50.150;8.756;2022-08-01T06:20:36;2.67;;;2.17;;
17171;SDS011;8701;50.150;8.756;2022-08-01T06:24:40;2.50;;;1.90;;
17171;SDS011;8701;50.150;8.756;2022-08-01T06:28:42;2.47;;;1.90;;
17171;SDS011;8701;50.150;8.756;2022-08-01T06:32:45;2.23;;;1.90;;
17171;SDS011;8701;50.150;8.756;2022-08-01T06:36:48;2.30;;;2.10;;
17171;SDS011;8701;50.150;8.756;2022-08-01T06:40:51;3.10;;;1.93;;
17171;SDS011;8701;50.150;8.756;2022-08-01T06:44:53;2.07;;;1.80;;
17171;SDS011;8701;50.150;8.756;2022-08-01T06:48:56;3.33;;;2.03;;
17171;SDS011;8701;50.150;8.756;2022-08-01T06:52:58;1.97;;;1.77;;
17171;SDS011;8701;50.150;8.756;2022-08-01T06:57:02;2.88;;;1.90;;
17171;SDS011;8701;50.150;8.756;2022-08-01T07:01:06;3.53;;;2.53;;
17171;SDS011;8701;50.150;8.756;2022-08-01T07:05:09;2.37;;;2.17;;
17171;SDS011;8701;50.150;8.756;2022-08-01T07:09:11;3.73;;;2.30;;
17171;SDS011;8701;50.150;8.756;2022-08-01T07:13:15;2.80;;;2.60;;
17171;SDS011;8701;50.150;8.756;2022-08-01T07:17:21;2.47;;;2.27;;
17171;SDS011;8701;50.150;8.756;2022-08-01T07:21:23;2.53;;;2.27;;
17171;SDS011;8701;50.150;8.756;2022-08-01T07:25:26;3.80;;;2.50;;
17171;SDS011;8701;50.150;8.756;2022-08-01T07:29:30;2.80;;;2.27;;
17171;SDS011;8701;50.150;8.756;2022-08-01T07:33:32;2.90;;;2.43;;
17171;SDS011;8701;50.150;8.756;2022-08-01T07:37:34;4.50;;;3.30;;
17171;SDS011;8701;50.150;8.756;2022-08-01T07:41:37;2.43;;;2.23;;
17171;SDS011;8701;50.150;8.756;2022-08-01T07:45:41;3.40;;;2.87;;
17171;SDS011;8701;50.150;8.756;2022-08-01T07:49:43;2.60;;;2.40;;
17171;SDS011;8701;50.150;8.756;2022-08-01T07:53:45;3.30;;;2.43;;
17171;SDS011;8701;50.150;8.756;2022-08-01T07:57:48;2.50;;;2.30;;
17171;SDS011;8701;50.150;8.756;2022-08-01T08:01:52;3.10;;;2.80;;
17171;SDS011;8701;50.150;8.756;2022-08-01T08:05:54;3.40;;;3.10;;
17171;SDS011;8701;50.150;8.756;2022-08-01T08:09:57;2.23;;;2.13;;
17171;SDS011;8701;50.150;8.756;2022-08-01T08:13:59;3.67;;;3.33;;
17171;SDS011;8701;50.150;8.756;2022-08-01T08:18:03;4.10;;;3.10;;
17171;SDS011;8701;50.150;8.756;2022-08-01T08:22:06;3.57;;;3.27;;
17171;SDS011;8701;50.150;8.756;2022-08-01T08:26:09;5.18;;;3.55;;
17171;SDS011;8701;50.150;8.756;2022-08-01T08:30:11;3.00;;;2.80;;
17171;SDS011;8701;50.150;8.756;2022-08-01T08:34:16;4.20;;;3.90;;
17171;SDS011;8701;50.150;8.756;2022-08-01T08:38:18;3.27;;;2.93;;
17171;SDS011;8701;50.150;8.756;2022-08-01T08:42:20;8.50;;;3.47;;
17171;SDS011;8701;50.150;8.756;2022-08-01T08:46:23;6.33;;;3.67;;
17171;SDS011;8701;50.150;8.756;2022-08-01T08:50:28;3.73;;;3.43;;
17171;SDS011;8701;50.150;8.756;2022-08-01T08:54:31;4.13;;;3.53;;
17171;SDS011;8701;50.150;8.756;2022-08-01T08:58:34;3.63;;;3.33;;
17171;SDS011;8701;50.150;8.756;2022-08-01T09:02:40;4.40;;;3.10;;
17171;SDS011;8701;50.150;8.756;2022-08-01T09:06:44;4.40;;;4.00;;
17171;SDS011;8701;50.150;8.756;2022-08-01T09:10:47;5.80;;;4.00;;
17171;SDS011;8701;50.150;8.756;2022-08-01T09:14:49;4.10;;;3.70;;
17171;SDS011;8701;50.150;8.756;2022-08-01T09:18:53;3.60;;;3.30;;
17171;SDS011;8701;50.150;8.756;2022-08-01T09:23:12;3.97;;;3.63;;
17171;SDS011;8701;50.150;8.756;2022-08-01T09:27:33;4.07;;;3.27;;
17171;SDS011;8701;50.150;8.756;2022-08-01T09:31:40;5.57;;;3.50;;
17171;SDS011;8701;50.150;8.756;2022-08-01T09:35:43;4.40;;;3.40;;
17171;SDS011;8701;50.150;8.756;2022-08-01T09:39:56;3.20;;;3.00;;
17171;SDS011;8701;50.150;8.756;2022-08-01T09:43:59;3.13;;;2.93;;
17171;SDS011;8701;50.150;8.756;2022-08-01T09:48:05;3.87;;;3.27;;
17171;SDS011;8701;50.150;8.756;2022-08-01T09:52:12;3.07;;;2.77;;
17171;SDS011;8701;50.150;8.756;2022-08-01T09:56:17;3.37;;;2.50;;
17171;SDS011;8701;50.150;8.756;2022-08-01T10:00:19;6.13;;;2.50;;
17171;SDS011;8701;50.150;8.756;2022-08-01T10:04:21;2.23;;;2.13;;
17171;SDS011;8701;50.150;8.756;2022-08-01T10:08:24;1.90;;;1.80;;
17171;SDS011;8701;50.150;8.756;2022-08-01T10:12:29;2.73;;;1.87;;
17171;SDS011;8701;50.150;8.756;2022-08-01T10:16:34;1.80;;;1.70;;
17171;SDS011;8701;50.150;8.756;2022-08-01T10:20:37;1.93;;;1.83;;
17171;SDS011;8701;50.150;8.756;2022-08-01T10:24:40;1.80;;;1.70;;
17171;SDS011;8701;50.150;8.756;2022-08-01T10:28:44;2.10;;;2.00;;
17171;SDS011;8701;50.150;8.756;2022-08-01T10:32:50;2.28;;;2.15;;
17171;SDS011;8701;50.150;8.756;2022-08-01T10:36:53;2.40;;;2.20;;
17171;SDS011;8701;50.150;8.756;2022-08-01T10:40:55;2.60;;;2.35;;
17171;SDS011;8701;50.150;8.756;2022-08-01T10:45:02;4.23;;;2.37;;
17171;SDS011;8701;50.150;8.756;2022-08-01T10:49:06;3.50;;;2.50;;
17171;SDS011;8701;50.150;8.756;2022-08-01T10:53:12;5.47;;;2.60;;
17171;SDS011;8701;50.150;8.756;2022-08-01T10:57:17;2.60;;;2.40;;
17171;SDS011;8701;50.150;8.756;2022-08-01T11:01:23;2.63;;;2.50;;
17171;SDS011;8701;50.150;8.756;2022-08-01T11:05:28;2.73;;;2.00;;
17171;SDS011;8701;50.150;8.756;2022-08-01T11:09:43;5.63;;;2.57;;
17171;SDS011;8701;50.150;8.756;2022-08-01T11:14:02;2.60;;;2.20;;
17171;SDS011;8701;50.150;8.756;2022-08-01T11:27:16;2.70;;;2.50;;
17171;SDS011;8701;50.150;8.756;2022-08-01T11:31:29;3.70;;;3.25;;
17171;SDS011;8701;50.150;8.756;2022-08-01T11:35:34;3.30;;;3.00;;
17171;SDS011;8701;50.150;8.756;2022-08-01T11:39:37;4.50;;;3.30;;
17171;SDS011;8701;50.150;8.756;2022-08-01T11:43:54;3.90;;;3.60;;
17171;SDS011;8701;50.150;8.756;2022-08-01T11:47:57;3.03;;;2.83;;
17171;SDS011;8701;50.150;8.756;2022-08-01T11:52:03;3.90;;;3.10;;
17171;SDS011;8701;50.150;8.756;2022-08-01T11:56:07;3.17;;;2.60;;
17171;SDS011;8701;50.150;8.756;2022-08-01T12:00:11;2.57;;;2.37;;
17171;SDS011;8701;50.150;8.756;2022-08-01T12:04:15;2.93;;;2.50;;
17171;SDS011;8701;50.150;8.756;2022-08-01T12:08:25;2.77;;;2.57;;
17171;SDS011;8701;50.150;8.756;2022-08-01T12:12:28;4.77;;;2.03;;
17171;SDS011;8701;50.150;8.756;2022-08-01T12:16:31;2.73;;;2.00;;
17171;SDS011;8701;50.150;8.756;2022-08-01T12:20:35;1.83;;;1.73;;
17171;SDS011;8701;50.150;8.756;2022-08-01T12:24:39;2.22;;;2.03;;
17171;SDS011;8701;50.150;8.756;2022-08-01T12:28:43;2.80;;;2.13;;
17171;SDS011;8701;50.150;8.756;2022-08-01T12:32:47;2.80;;;1.90;;
17171;SDS011;8701;50.150;8.756;2022-08-01T12:36:53;2.20;;;2.03;;
17171;SDS011;8701;50.150;8.756;2022-08-01T12:40:57;3.57;;;2.30;;
17171;SDS011;8701;50.150;8.756;2022-08-01T12:45:00;2.10;;;2.00;;
17171;SDS011;8701;50.150;8.756;2022-08-01T12:49:02;2.20;;;2.00;;
17171;SDS011;8701;50.150;8.756;2022-08-01T12:53:05;2.50;;;2.03;;
17171;SDS011;8701;50.150;8.756;2022-08-01T13:01:26;2.60;;;2.37;;
17171;SDS011;8701;50.150;8.756;2022-08-01T13:05:40;3.40;;;2.40;;
17171;SDS011;8701;50.150;8.756;2022-08-01T13:09:48;2.30;;;2.10;;
17171;SDS011;8701;50.150;8.756;2022-08-01T13:13:52;2.67;;;2.47;;
17171;SDS011;8701;50.150;8.756;2022-08-01T13:17:57;4.80;;;2.60;;
17171;SDS011;8701;50.150;8.756;2022-08-01T13:22:01;2.73;;;2.40;;
17171;SDS011;8701;50.150;8.756;2022-08-01T13:26:03;2.63;;;2.43;;
17171;SDS011;8701;50.150;8.756;2022-08-01T13:30:14;2.00;;;1.90;;
17171;SDS011;8701;50.150;8.756;2022-08-01T13:34:17;1.93;;;1.80;;
17171;SDS011;8701;50.150;8.756;2022-08-01T13:38:19;3.10;;;2.17;;
17171;SDS011;8701;50.150;8.756;2022-08-01T13:42:42;3.27;;;2.50;;
17171;SDS011;8701;50.150;8.756;2022-08-01T13:46:46;6.20;;;2.67;;
17171;SDS011;8701;50.150;8.756;2022-08-01T13:50:49;2.20;;;2.00;;
17171;SDS011;8701;50.150;8.756;2022-08-01T13:54:51;2.20;;;2.10;;
17171;SDS011;8701;50.150;8.756;2022-08-01T13:58:53;2.23;;;2.13;;
17171;SDS011;8701;50.150;8.756;2022-08-01T14:02:57;2.10;;;2.00;;
17171;SDS011;8701;50.150;8.756;2022-08-01T14:06:59;3.40;;;2.10;;
17171;SDS011;8701;50.150;8.756;2022-08-01T14:11:02;3.03;;;2.10;;
17171;SDS011;8701;50.150;8.756;2022-08-01T14:15:04;5.60;;;2.23;;
17171;SDS011;8701;50.150;8.756;2022-08-01T14:19:09;2.17;;;1.97;;
17171;SDS011;8701;50.150;8.756;2022-08-01T14:23:11;2.27;;;2.07;;
17171;SDS011;8701;50.150;8.756;2022-08-01T14:27:14;3.23;;;2.33;;
17171;SDS011;8701;50.150;8.756;2022-08-01T14:31:16;2.90;;;2.60;;
17171;SDS011;8701;50.150;8.756;2022-08-01T14:35:20;4.37;;;2.20;;
17171;SDS011;8701;50.150;8.756;2022-08-01T14:39:22;2.33;;;2.10;;
17171;SDS011;8701;50.150;8.756;2022-08-01T14:43:24;2.60;;;2.40;;
17171;SDS011;8701;50.150;8.756;2022-08-01T14:47:27;4.60;;;2.50;;
17171;SDS011;8701;50.150;8.756;2022-08-01T14:51:31;3.23;;;3.03;;
17171;SDS011;8701;50.150;8.756;2022-08-01T14:55:35;2.40;;;2.20;;
17171;SDS011;8701;50.150;8.756;2022-08-01T14:59:37;3.57;;;2.63;;
17171;SDS011;8701;50.150;8.756;2022-08-01T15:03:39;3.80;;;2.57;;
17171;SDS011;8701;50.150;8.756;2022-08-01T15:07:43;2.90;;;2.70;;
17171;SDS011;8701;50.150;8.756;2022-08-01T15:11:46;3.13;;;2.47;;
17171;SDS011;8701;50.150;8.756;2022-08-01T15:15:48;3.10;;;2.37;;
17171;SDS011;8701;50.150;8.756;2022-08-01T15:19:51;8.60;;;2.63;;
17171;SDS011;8701;50.150;8.756;2022-08-01T15:23:56;3.50;;;2.60;;
17171;SDS011;8701;50.150;8.756;2022-08-01T15:27:59;2.70;;;2.50;;
17171;SDS011;8701;50.150;8.756;2022-08-01T15:32:01;3.17;;;2.50;;
17171;SDS011;8701;50.150;8.756;2022-08-01T15:36:05;2.40;;;2.25;;
17171;SDS011;8701;50.150;8.756;2022-08-01T15:40:09;5.20;;;2.37;;
17171;SDS011;8701;50.150;8.756;2022-08-01T15:44:12;2.90;;;2.60;;
17171;SDS011;8701;50.150;8.756;2022-08-01T15:48:14;2.53;;;2.33;;
17171;SDS011;8701;50.150;8.756;2022-08-01T15:52:17;2.60;;;2.40;;
17171;SDS011;8701;50.150;8.756;2022-08-01T15:56:21;2.90;;;2.70;;
17171;SDS011;8701;50.150;8.756;2022-08-01T16:00:43;2.97;;;2.73;;
17171;SDS011;8701;50.150;8.756;2022-08-01T16:04:46;2.83;;;2.63;;
17171;SDS011;8701;50.150;8.756;2022-08-01T16:08:48;2.60;;;2.30;;
17171;SDS011;8701;50.150;8.756;2022-08-01T16:12:52;3.10;;;2.77;;
17171;SDS011;8701;50.150;8.756;2022-08-01T16:16:55;2.93;;;2.60;;
17171;SDS011;8701;50.150;8.756;2022-08-01T16:20:57;3.90;;;2.53;;
17171;SDS011;8701;50.150;8.756;2022-08-01T16:24:59;2.70;;;2.50;;
17171;SDS011;8701;50.150;8.756;2022-08-01T16:29:03;4.30;;;2.93;;
17171;SDS011;8701;50.150;8.756;2022-08-01T16:33:06;10.80;;;3.10;;
17171;SDS011;8701;50.150;8.756;2022-08-01T16:37:10;3.40;;;2.97;;
17171;SDS011;8701;50.150;8.756;2022-08-01T16:41:13;3.80;;;2.40;;
17171;SDS011;8701;50.150;8.756;2022-08-01T16:45:16;3.17;;;2.87;;
17171;SDS011;8701;50.150;8.756;2022-08-01T16:49:20;5.00;;;2.80;;
17171;SDS011;8701;50.150;8.756;2022-08-01T16:53:23;3.97;;;2.60;;
17171;SDS011;8701;50.150;8.756;2022-08-01T16:57:25;3.27;;;2.73;;
17171;SDS011;8701;50.150;8.756;2022-08-01T17:01:29;4.17;;;3.03;;
17171;SDS011;8701;50.150;8.756;2022-08-01T17:05:32;3.30;;;2.90;;
17171;SDS011;8701;50.150;8.756;2022-08-01T17:09:34;5.60;;;3.33;;
17171;SDS011;8701;50.150;8.756;2022-08-01T17:13:37;3.20;;;2.90;;
17171;SDS011;8701;50.150;8.756;2022-08-01T17:17:41;4.70;;;3.33;;
17171;SDS011;8701;50.150;8.756;2022-08-01T17:21:43;2.90;;;2.70;;
17171;SDS011;8701;50.150;8.756;2022-08-01T17:25:45;4.10;;;2.80;;
17171;SDS011;8701;50.150;8.756;2022-08-01T17:29:48;4.17;;;2.80;;
17171;SDS011;8701;50.150;8.756;2022-08-01T17:33:53;3.93;;;2.93;;
17171;SDS011;8701;50.150;8.756;2022-08-01T17:37:55;2.90;;;2.70;;
17171;SDS011;8701;50.150;8.756;2022-08-01T17:41:57;3.13;;;2.83;;
17171;SDS011;8701;50.150;8.756;2022-08-01T17:46:00;3.93;;;2.83;;
17171;SDS011;8701;50.150;8.756;2022-08-01T17:50:06;5.67;;;3.17;;
17171;SDS011;8701;50.150;8.756;2022-08-01T17:54:10;7.03;;;2.97;;
17171;SDS011;8701;50.150;8.756;2022-08-01T17:58:12;6.83;;;3.53;;
17171;SDS011;8701;50.150;8.756;2022-08-01T18:02:17;4.50;;;3.00;;
17171;SDS011;8701;50.150;8.756;2022-08-01T18:06:20;4.47;;;3.25;;
17171;SDS011;8701;50.150;8.756;2022-08-01T18:10:23;3.03;;;2.83;;
17171;SDS011;8701;50.150;8.756;2022-08-01T18:14:25;3.20;;;2.93;;
17171;SDS011;8701;50.150;8.756;2022-08-01T18:18:28;3.10;;;2.90;;
17171;SDS011;8701;50.150;8.756;2022-08-01T18:22:31;3.00;;;2.70;;
17171;SDS011;8701;50.150;8.756;2022-08-01T18:26:34;3.40;;;3.20;;
17171;SDS011;8701;50.150;8.756;2022-08-01T18:30:36;3.10;;;2.80;;
17171;SDS011;8701;50.150;8.756;2022-08-01T18:34:38;5.50;;;3.17;;
17171;SDS011;8701;50.150;8.756;2022-08-01T18:38:42;3.00;;;2.70;;
17171;SDS011;8701;50.150;8.756;2022-08-01T18:42:45;3.50;;;3.20;;
17171;SDS011;8701;50.150;8.756;2022-08-01T18:46:47;3.30;;;3.00;;
17171;SDS011;8701;50.150;8.756;2022-08-01T18:50:50;3.97;;;3.00;;
17171;SDS011;8701;50.150;8.756;2022-08-01T18:54:54;3.50;;;3.20;;
17171;SDS011;8701;50.150;8.756;2022-08-01T18:58:57;5.70;;;2.60;;
17171;SDS011;8701;50.150;8.756;2022-08-01T19:02:59;3.73;;;2.97;;
17171;SDS011;8701;50.150;8.756;2022-08-01T19:07:02;6.70;;;3.33;;
17171;SDS011;8701;50.150;8.756;2022-08-01T19:11:06;4.43;;;2.80;;
17171;SDS011;8701;50.150;8.756;2022-08-01T19:15:09;3.90;;;3.00;;
17171;SDS011;8701;50.150;8.756;2022-08-01T19:19:11;3.00;;;2.80;;
17171;SDS011;8701;50.150;8.756;2022-08-01T19:23:13;3.50;;;3.20;;
17171;SDS011;8701;50.150;8.756;2022-08-01T19:27:35;3.40;;;3.10;;
17171;SDS011;8701;50.150;8.756;2022-08-01T19:31:40;3.10;;;2.80;;
17171;SDS011;8701;50.150;8.756;2022-08-01T19:35:43;4.63;;;2.90;;
17171;SDS011;8701;50.150;8.756;2022-08-01T19:39:46;5.37;;;3.43;;
17171;SDS011;8701;50.150;8.756;2022-08-01T19:43:50;3.60;;;3.27;;
17171;SDS011;8701;50.150;8.756;2022-08-01T19:47:52;3.80;;;2.87;;
17171;SDS011;8701;50.150;8.756;2022-08-01T19:51:57;4.53;;;2.70;;
17171;SDS011;8701;50.150;8.756;2022-08-01T19:56:02;3.93;;;2.97;;
17171;SDS011;8701;50.150;8.756;2022-08-01T20:00:08;4.20;;;2.83;;
17171;SDS011;8701;50.150;8.756;2022-08-01T20:04:12;4.63;;;2.70;;
17171;SDS011;8701;50.150;8.756;2022-08-01T20:08:15;2.70;;;2.50;;
17171;SDS011;8701;50.150;8.756;2022-08-01T20:12:19;3.67;;;2.60;;
17171;SDS011;8701;50.150;8.756;2022-08-01T20:16:23;2.67;;;2.47;;
17171;SDS011;8701;50.150;8.756;2022-08-01T20:20:28;2.87;;;2.47;;
17171;SDS011;8701;50.150;8.756;2022-08-01T20:24:34;3.47;;;2.50;;
17171;SDS011;8701;50.150;8.756;2022-08-01T20:28:38;2.40;;;2.30;;
17171;SDS011;8701;50.150;8.756;2022-08-01T20:32:42;2.10;;;2.00;;
17171;SDS011;8701;50.150;8.756;2022-08-01T20:36:45;5.67;;;2.40;;
17171;SDS011;8701;50.150;8.756;2022-08-01T20:40:48;2.70;;;2.50;;
17171;SDS011;8701;50.150;8.756;2022-08-01T20:44:51;2.20;;;2.10;;
17171;SDS011;8701;50.150;8.756;2022-08-01T20:48:57;3.07;;;2.40;;
17171;SDS011;8701;50.150;8.756;2022-08-01T20:52:59;1.97;;;1.87;;
17171;SDS011;8701;50.150;8.756;2022-08-01T20:57:03;2.33;;;2.23;;
17171;SDS011;8701;50.150;8.756;2022-08-01T21:01:09;2.67;;;2.47;;
17171;SDS011;8701;50.150;8.756;2022-08-01T21:05:16;2.27;;;2.07;;
17171;SDS011;8701;50.150;8.756;2022-08-01T21:09:24;2.20;;;1.83;;
17171;SDS011;8701;50.150;8.756;2022-08-01T21:13:32;2.20;;;2.00;;
17171;SDS011;8701;50.150;8.756;2022-08-01T21:17:42;2.30;;;2.10;;
17171;SDS011;8701;50.150;8.756;2022-08-01T21:21:49;3.63;;;2.30;;
17171;SDS011;8701;50.150;8.756;2022-08-01T21:25:55;1.97;;;1.87;;
17171;SDS011;8701;50.150;8.756;2022-08-01T21:29:59;2.38;;;2.10;;
17171;SDS011;8701;50.150;8.756;2022-08-01T21:34:04;1.90;;;1.80;;
17171;SDS011;8701;50.150;8.756;2022-08-01T21:38:09;1.80;;;1.70;;
17171;SDS011;8701;50.150;8.756;2022-08-01T21:42:12;3.10;;;2.13;;
17171;SDS011;8701;50.150;8.756;2022-08-01T21:46:15;1.87;;;1.73;;
17171;SDS011;8701;50.150;8.756;2022-08-01T21:50:18;2.17;;;1.90;;
17171;SDS011;8701;50.150;8.756;2022-08-01T21:54:23;2.40;;;2.20;;
17171;SDS011;8701;50.150;8.756;2022-08-01T21:58:37;2.20;;;2.00;;
17171;SDS011;8701;50.150;8.756;2022-08-01T22:02:49;2.67;;;2.00;;
17171;SDS011;8701;50.150;8.756;2022-08-01T22:06:55;2.00;;;1.80;;
17171;SDS011;8701;50.150;8.756;2022-08-01T22:11:02;1.90;;;1.80;;
17171;SDS011;8701;50.150;8.756;2022-08-01T22:15:06;3.80;;;1.80;;
17171;SDS011;8701;50.150;8.756;2022-08-01T22:19:09;2.40;;;1.90;;
17171;SDS011;8701;50.150;8.756;2022-08-01T22:23:13;1.93;;;1.83;;
17171;SDS011;8701;50.150;8.756;2022-08-01T22:27:19;1.83;;;1.73;;
17171;SDS011;8701;50.150;8.756;2022-08-01T22:31:25;1.77;;;1.67;;
17171;SDS011;8701;50.150;8.756;2022-08-01T22:35:27;2.13;;;1.80;;
17171;SDS011;8701;50.150;8.756;2022-08-01T22:39:29;1.80;;;1.70;;
17171;SDS011;8701;50.150;8.756;2022-08-01T22:43:37;1.70;;;1.60;;
17171;SDS011;8701;50.150;8.756;2022-08-01T22:47:47;3.53;;;1.70;;
17171;SDS011;8701;50.150;8.756;2022-08-01T22:51:55;2.17;;;1.80;;
17171;SDS011;8701;50.150;8.756;2022-08-01T22:56:04;2.50;;;1.77;;
17171;SDS011;8701;50.150;8.756;2022-08-01T23:00:12;1.70;;;1.60;;
17171;SDS011;8701;50.150;8.756;2022-08-01T23:04:18;1.73;;;1.63;;
17171;SDS011;8701;50.150;8.756;2022-08-01T23:08:24;1.80;;;1.70;;
17171;SDS011;8701;50.150;8.756;2022-08-01T23:12:26;2.13;;;1.80;;
17171;SDS011;8701;50.150;8.756;2022-08-01T23:16:32;3.47;;;1.90;;
17171;SDS011;8701;50.150;8.756;2022-08-01T23:20:37;2.03;;;1.93;;
17171;SDS011;8701;50.150;8.756;2022-08-01T23:24:40;1.90;;;1.80;;
17171;SDS011;8701;50.150;8.756;2022-08-01T23:28:44;3.20;;;1.83;;
17171;SDS011;8701;50.150;8.756;2022-08-01T23:32:48;1.70;;;1.60;;
17171;SDS011;8701;50.150;8.756;2022-08-01T23:36:51;2.63;;;1.83;;
17171;SDS011;8701;50.150;8.756;2022-08-01T23:40:53;2.47;;;1.80;;
17171;SDS011;8701;50.150;8.756;2022-08-01T23:44:55;1.75;;;1.63;;
17171;SDS011;8701;50.150;8.756;2022-08-01T23:48:59;2.60;;;2.40;;
17171;SDS011;8701;50.150;8.756;2022-08-01T23:53:01;2.60;;;2.40;;
17171;SDS011;8701;50.150;8.756;2022-08-01T23:57:03;5.53;;;2.40;;
